Time;durP1;ratioP1;P1;durP2;ratioP2;P2;SDS_P1;SDS_P2;PMS_P1;PMS_P2;Temp;Humidity;BMP_temperature;BMP_pressure;BME280_temperature;BME280_humidity;BME280_pressure;Samples;Min_cycle;Max_cycle;Signal;HPM_P1;HPM_P2
2022/01/22 00:02:06;;;;;;;6.97;2.13;;;3.50;52.30;;;;;;5011741;28;20029;-82
2022/01/22 00:04:33;;;;;;;7.03;2.13;;;3.60;52.40;;;;;;5005387;28;20026;-82
2022/01/22 00:07:01;;;;;;;4.17;1.60;;;3.50;52.40;;;;;;4995153;28;20030;-82
2022/01/22 00:09:28;;;;;;;4.30;1.77;;;3.50;52.60;;;;;;4997492;28;20033;-83
2022/01/22 00:11:55;;;;;;;5.93;1.60;;;3.60;52.60;;;;;;4999339;28;20048;-82
2022/01/22 00:14:24;;;;;;;6.07;1.90;;;3.60;52.60;;;;;;4994587;28;20026;-83
2022/01/22 00:16:51;;;;;;;1.40;0.80;;;3.60;52.60;;;;;;4985921;28;20500;-83
2022/01/22 00:19:17;;;;;;;2.33;0.90;;;3.60;52.90;;;;;;4990662;28;20132;-83
2022/01/22 00:21:43;;;;;;;2.80;0.90;;;3.80;52.40;;;;;;4991262;28;20037;-83
2022/01/22 00:24:11;;;;;;;3.87;0.70;;;3.80;51.70;;;;;;4988168;28;20505;-83
2022/01/22 00:26:37;;;;;;;3.70;1.50;;;3.80;51.90;;;;;;4993953;28;20112;-83
2022/01/22 00:29:03;;;;;;;6.20;0.97;;;4.00;51.50;;;;;;5009582;28;20160;-83
2022/01/22 00:31:29;;;;;;;3.53;1.30;;;4.00;51.10;;;;;;5005391;28;20410;-83
2022/01/22 00:33:55;;;;;;;1.90;0.70;;;4.10;51.20;;;;;;5000209;28;20022;-83
2022/01/22 00:36:20;;;;;;;3.67;1.00;;;4.00;50.50;;;;;;5008943;28;20037;-83
2022/01/22 00:38:46;;;;;;;6.87;0.83;;;3.90;50.30;;;;;;5003793;28;20166;-83
2022/01/22 00:41:12;;;;;;;1.80;0.77;;;3.90;50.50;;;;;;5001106;28;20627;-83
2022/01/22 00:43:38;;;;;;;2.80;0.40;;;3.90;49.90;;;;;;4996509;28;20018;-83
2022/01/22 00:46:04;;;;;;;5.43;0.50;;;3.90;49.90;;;;;;4992972;28;20032;-82
2022/01/22 00:48:29;;;;;;;1.67;0.53;;;4.10;50.30;;;;;;4997365;28;20096;-82
2022/01/22 00:50:56;;;;;;;1.80;0.40;;;4.20;50.30;;;;;;4995254;28;20030;-82
2022/01/22 00:53:24;;;;;;;0.90;0.40;;;4.20;50.10;;;;;;4998708;28;20026;-83
2022/01/22 00:55:49;;;;;;;3.80;0.50;;;4.10;49.70;;;;;;4991932;28;20069;-82
2022/01/22 00:58:15;;;;;;;1.40;0.63;;;4.00;50.00;;;;;;5006601;28;20053;-82
2022/01/22 01:00:41;;;;;;;4.30;0.50;;;4.10;50.00;;;;;;4996900;28;20026;-82
2022/01/22 01:03:08;;;;;;;2.03;0.50;;;4.20;50.10;;;;;;4989346;28;20087;-83
2022/01/22 01:05:34;;;;;;;2.30;0.57;;;4.20;49.50;;;;;;4987739;28;20034;-82
2022/01/22 01:08:00;;;;;;;2.23;0.50;;;4.10;49.60;;;;;;4990926;28;20450;-82
2022/01/22 01:10:26;;;;;;;1.50;0.40;;;4.10;49.70;;;;;;5008382;28;20104;-82
2022/01/22 01:12:52;;;;;;;1.47;0.67;;;4.20;49.70;;;;;;4994560;28;20112;-82
2022/01/22 01:15:42;;;;;;;0.97;0.30;;;4.30;49.90;;;;;;5009327;28;20100;-83
2022/01/22 01:34:22;;;;;;;6.23;2.37;;;4.40;49.40;;;;;;5014318;28;20063;-82
2022/01/22 01:36:49;;;;;;;7.83;2.40;;;4.20;49.70;;;;;;4993326;28;20033;-83
2022/01/22 01:39:21;;;;;;;6.07;1.30;;;4.20;49.90;;;;;;5010786;28;20084;-82
2022/01/22 01:44:17;;;;;;;6.20;1.40;;;3.90;50.30;;;;;;5011890;28;19996;-82
2022/01/22 01:46:53;;;;;;;4.90;1.30;;;3.80;50.20;;;;;;5013050;28;20021;-82
2022/01/22 01:49:19;;;;;;;3.00;1.10;;;3.80;50.20;;;;;;4998427;28;20034;-82
2022/01/22 01:51:46;;;;;;;7.53;1.60;;;3.80;50.20;;;;;;4990958;28;20407;-82
2022/01/22 01:55:02;;;;;;;4.47;1.57;;;3.80;50.00;;;;;;4998846;28;20061;-81
2022/01/22 01:59:47;;;;;;;3.20;1.20;;;3.80;50.00;;;;;;5005314;28;20140;-82
2022/01/22 02:02:13;;;;;;;3.77;1.20;;;3.80;50.30;;;;;;4995682;28;20025;-82
2022/01/22 02:04:40;;;;;;;4.00;1.20;;;3.80;50.30;;;;;;4997757;28;20069;-82
2022/01/22 02:07:06;;;;;;;3.20;1.33;;;3.80;50.30;;;;;;4992233;28;20090;-81
2022/01/22 02:09:34;;;;;;;2.03;1.20;;;3.80;50.30;;;;;;4993854;28;20025;-82
2022/01/22 02:12:06;;;;;;;4.17;1.20;;;3.80;50.40;;;;;;5012481;28;20366;-82
2022/01/22 02:25:34;;;;;;;2.77;1.27;;;3.70;50.80;;;;;;5012939;28;20507;-82
2022/01/22 02:28:03;;;;;;;3.40;1.13;;;3.70;50.80;;;;;;5008691;28;20416;-82
2022/01/22 02:30:32;;;;;;;3.83;1.53;;;3.70;50.70;;;;;;4993109;28;20229;-82
2022/01/22 02:35:47;;;;;;;4.20;1.20;;;3.70;50.60;;;;;;5012402;28;20104;-83
2022/01/22 02:38:19;;;;;;;4.83;1.30;;;3.70;50.80;;;;;;4993623;28;20040;-82
2022/01/22 02:40:47;;;;;;;3.50;1.23;;;3.70;51.00;;;;;;5007020;28;20058;-83
2022/01/22 02:43:14;;;;;;;4.23;1.20;;;3.70;51.00;;;;;;4989493;28;20025;-83
2022/01/22 02:45:45;;;;;;;4.63;1.30;;;3.70;51.00;;;;;;5009512;28;20534;-83
2022/01/22 02:48:11;;;;;;;3.57;1.30;;;3.70;50.80;;;;;;4998122;28;20026;-83
2022/01/22 02:50:37;;;;;;;3.00;1.10;;;3.70;50.80;;;;;;5011884;28;20029;-82
2022/01/22 02:53:05;;;;;;;3.47;1.10;;;3.70;51.00;;;;;;4993734;28;20124;-83
2022/01/22 02:55:31;;;;;;;4.23;1.27;;;3.80;50.80;;;;;;4993792;28;20037;-82
2022/01/22 02:57:57;;;;;;;2.23;0.97;;;3.70;50.80;;;;;;5009650;28;20037;-83
2022/01/22 03:00:23;;;;;;;3.33;1.17;;;3.70;50.90;;;;;;4995064;28;20392;-83
2022/01/22 03:02:50;;;;;;;3.23;1.37;;;3.70;51.00;;;;;;4995419;28;20060;-82
2022/01/22 03:05:16;;;;;;;3.23;1.50;;;3.60;51.00;;;;;;4993381;28;20023;-82
2022/01/22 03:07:45;;;;;;;5.23;1.60;;;3.70;51.10;;;;;;4993193;28;20029;-82
2022/01/22 03:10:13;;;;;;;4.90;1.63;;;3.60;51.00;;;;;;4994840;28;20030;-82
2022/01/22 03:18:12;;;;;;;4.43;1.37;;;3.70;50.90;;;;;;5009828;28;20048;-83
2022/01/22 03:23:12;;;;;;;4.37;1.30;;;3.80;51.00;;;;;;5006929;28;20106;-82
2022/01/22 03:28:27;;;;;;;6.73;1.50;;;3.80;51.00;;;;;;5008084;28;20496;-82
2022/01/22 03:30:53;;;;;;;4.10;1.60;;;3.80;50.80;;;;;;4993841;28;20113;-83
2022/01/22 03:33:22;;;;;;;3.50;1.30;;;3.80;50.70;;;;;;4988723;28;20480;-83
2022/01/22 03:35:54;;;;;;;2.23;1.07;;;3.80;50.70;;;;;;4991865;28;20025;-83
2022/01/22 03:38:20;;;;;;;5.88;1.23;;;3.80;50.70;;;;;;4999465;28;20036;-83
2022/01/22 03:40:49;;;;;;;3.07;1.20;;;3.80;50.70;;;;;;4994833;28;20567;-83
2022/01/22 03:43:15;;;;;;;2.87;1.33;;;3.80;50.60;;;;;;4994578;28;20083;-83
2022/01/22 03:45:41;;;;;;;5.10;1.70;;;3.70;50.70;;;;;;4994173;28;20022;-83
2022/01/22 03:48:06;;;;;;;6.87;2.87;;;3.70;51.00;;;;;;5000553;28;20029;-83
2022/01/22 03:50:32;;;;;;;3.93;1.73;;;3.80;51.00;;;;;;5014195;28;20052;-83
2022/01/22 03:52:58;;;;;;;5.90;1.60;;;3.80;51.10;;;;;;5009867;28;20079;-83
2022/01/22 03:56:07;;;;;;;1.63;1.00;;;3.90;51.00;;;;;;5012253;28;20061;-83
2022/01/22 03:58:13;;;;;;;6.17;1.60;;;3.90;51.00;;;;;;5002610;28;20192;-83
2022/01/22 04:00:39;;;;;;;3.50;1.70;;;3.90;50.90;;;;;;4995684;28;20120;-83
2022/01/22 04:03:27;;;;;;;2.53;1.37;;;3.80;51.30;;;;;;4997135;28;20030;-83
2022/01/22 04:06:43;;;;;;;6.13;1.30;;;3.80;51.00;;;;;;5010482;28;20056;-83
2022/01/22 04:08:39;;;;;;;3.33;1.23;;;3.80;50.90;;;;;;5007137;28;20040;-83
2022/01/22 04:11:10;;;;;;;2.60;1.07;;;3.80;50.90;;;;;;5006477;28;20376;-83
2022/01/22 04:13:36;;;;;;;5.00;1.73;;;3.80;50.90;;;;;;4995906;28;20401;-83
2022/01/22 04:16:02;;;;;;;3.03;1.23;;;3.80;50.90;;;;;;5010429;28;20116;-82
2022/01/22 04:27:08;;;;;;;3.50;1.37;;;3.70;51.10;;;;;;5011025;28;20117;-83
2022/01/22 04:29:33;;;;;;;4.13;1.37;;;3.70;51.40;;;;;;4995403;28;20033;-83
2022/01/22 04:31:59;;;;;;;4.13;1.40;;;3.70;51.30;;;;;;5003055;28;20080;-82
2022/01/22 04:34:25;;;;;;;2.57;1.00;;;3.70;51.40;;;;;;4993257;28;20117;-82
2022/01/22 04:36:51;;;;;;;2.83;1.50;;;3.70;51.60;;;;;;4997489;28;20555;-82
2022/01/22 04:39:19;;;;;;;4.47;1.77;;;3.70;51.70;;;;;;5002295;28;20068;-83
2022/01/22 04:41:45;;;;;;;4.50;1.93;;;3.80;51.80;;;;;;4990918;28;20061;-83
2022/01/22 04:44:11;;;;;;;3.97;2.27;;;3.80;51.70;;;;;;4992178;28;20033;-82
2022/01/22 04:57:21;;;;;;;4.70;1.80;;;3.80;52.30;;;;;;5010338;28;20049;-83
2022/01/22 04:59:47;;;;;;;2.80;1.10;;;3.80;52.30;;;;;;4999246;28;20036;-83
2022/01/22 05:02:13;;;;;;;3.47;1.30;;;3.80;52.40;;;;;;5008033;28;20034;-82
2022/01/22 05:04:39;;;;;;;3.40;1.37;;;3.70;52.20;;;;;;4994323;28;20034;-83
2022/01/22 05:07:05;;;;;;;2.93;1.50;;;3.70;52.20;;;;;;4976759;28;20034;-83
2022/01/22 05:09:31;;;;;;;3.23;1.43;;;3.70;52.10;;;;;;4986675;28;20032;-83
2022/01/22 05:11:58;;;;;;;3.70;1.20;;;3.70;52.20;;;;;;4995453;28;20473;-83
2022/01/22 05:14:24;;;;;;;4.50;1.43;;;3.70;52.20;;;;;;4996436;28;20042;-83
2022/01/22 05:16:51;;;;;;;3.13;1.30;;;3.70;52.20;;;;;;4998689;28;20499;-83
2022/01/22 05:19:27;;;;;;;4.63;1.20;;;3.80;52.20;;;;;;4997566;28;22038;-83
2022/01/22 05:21:57;;;;;;;3.27;1.20;;;3.70;52.00;;;;;;4996083;28;20469;-83
2022/01/22 05:24:27;;;;;;;4.23;1.20;;;3.70;52.10;;;;;;4996002;28;20034;-83
2022/01/22 05:37:28;;;;;;;4.80;1.70;;;3.60;52.30;;;;;;5011804;28;20044;-82
2022/01/22 05:39:54;;;;;;;3.50;1.60;;;3.60;52.40;;;;;;4993515;28;20030;-82
2022/01/22 05:42:20;;;;;;;3.03;1.20;;;3.60;52.50;;;;;;5004822;28;20037;-82
2022/01/22 05:44:46;;;;;;;5.50;1.33;;;3.60;52.70;;;;;;5000947;28;20026;-82
2022/01/22 05:47:14;;;;;;;7.17;2.20;;;3.70;52.90;;;;;;4998013;28;20041;-82
2022/01/22 05:49:42;;;;;;;3.40;1.43;;;3.70;53.00;;;;;;5008721;28;20026;-82
2022/01/22 05:52:11;;;;;;;4.10;1.40;;;3.70;52.90;;;;;;5000497;28;20540;-82
2022/01/22 05:55:10;;;;;;;8.83;1.80;;;3.60;53.00;;;;;;4994369;28;20492;-83
2022/01/22 06:00:20;;;;;;;2.93;1.57;;;3.70;53.40;;;;;;5004616;28;20096;-82
2022/01/22 06:02:46;;;;;;;3.73;1.20;;;3.60;53.50;;;;;;5002181;28;20029;-82
2022/01/22 06:05:12;;;;;;;4.10;1.30;;;3.60;54.30;;;;;;5001625;28;20523;-83
2022/01/22 06:07:38;;;;;;;4.30;1.50;;;3.60;54.30;;;;;;4994531;28;20033;-83
2022/01/22 06:10:15;;;;;;;2.20;1.07;;;3.60;53.90;;;;;;4994603;28;20034;-83
2022/01/22 06:15:17;;;;;;;5.03;1.20;;;3.50;54.40;;;;;;5000555;28;20046;-83
2022/01/22 06:17:42;;;;;;;3.70;1.47;;;3.60;54.70;;;;;;5008786;28;20080;-83
2022/01/22 06:20:12;;;;;;;2.97;1.00;;;3.50;54.80;;;;;;4994843;28;20065;-82
2022/01/22 06:22:39;;;;;;;3.50;1.03;;;3.40;55.20;;;;;;4999051;28;20026;-82
2022/01/22 06:25:06;;;;;;;2.00;0.93;;;3.40;55.70;;;;;;4992638;28;20030;-82
2022/01/22 06:27:32;;;;;;;3.70;0.80;;;3.40;56.00;;;;;;4989430;28;20068;-82
2022/01/22 06:29:58;;;;;;;1.70;0.70;;;3.40;56.40;;;;;;4995464;28;20144;-83
2022/01/22 06:32:24;;;;;;;3.27;0.93;;;3.40;57.00;;;;;;4998167;28;20060;-83
2022/01/22 06:34:50;;;;;;;4.43;1.13;;;3.40;57.00;;;;;;5003047;28;20040;-83
2022/01/22 06:37:16;;;;;;;3.27;1.00;;;3.20;57.40;;;;;;5010179;28;20030;-83
2022/01/22 06:42:26;;;;;;;5.47;1.10;;;3.20;58.50;;;;;;5007896;28;20129;-83
2022/01/22 06:44:52;;;;;;;2.57;1.07;;;3.20;58.80;;;;;;5010788;28;20057;-83
2022/01/22 06:47:18;;;;;;;4.17;1.33;;;3.20;58.80;;;;;;4997521;28;20121;-83
2022/01/22 06:49:43;;;;;;;2.13;1.20;;;3.30;59.10;;;;;;4994795;28;20110;-83
2022/01/22 06:52:09;;;;;;;3.37;1.43;;;3.20;59.40;;;;;;4994497;28;20053;-83
2022/01/22 06:54:35;;;;;;;3.83;1.13;;;3.10;59.50;;;;;;4998430;28;20034;-83
2022/01/22 06:57:01;;;;;;;3.10;1.70;;;3.10;60.10;;;;;;5007164;28;20030;-83
2022/01/22 06:59:26;;;;;;;6.70;1.57;;;3.10;60.50;;;;;;5005869;28;20030;-82
2022/01/22 07:01:54;;;;;;;3.83;1.77;;;3.10;60.60;;;;;;5003153;28;20029;-82
2022/01/22 07:04:21;;;;;;;3.27;1.50;;;3.10;60.70;;;;;;5015424;28;20075;-83
2022/01/22 07:06:47;;;;;;;4.03;1.70;;;2.90;61.30;;;;;;5004146;28;20026;-83
2022/01/22 07:09:12;;;;;;;4.73;1.50;;;2.80;62.10;;;;;;5005489;28;20083;-82
2022/01/22 07:11:38;;;;;;;3.43;1.50;;;2.80;62.10;;;;;;4996474;28;20559;-82
2022/01/22 07:14:04;;;;;;;3.27;1.23;;;2.70;62.40;;;;;;4996254;28;20164;-82
2022/01/22 07:16:30;;;;;;;2.77;1.00;;;2.60;63.00;;;;;;4991396;28;20053;-82
2022/01/22 07:19:00;;;;;;;4.67;1.33;;;2.60;63.30;;;;;;4996331;28;20034;-80
2022/01/22 07:21:28;;;;;;;5.17;1.23;;;2.60;63.50;;;;;;4990909;28;20574;-82
2022/01/22 07:24:41;;;;;;;2.37;1.20;;;2.70;63.80;;;;;;4993119;28;20022;-82
2022/01/22 07:26:40;;;;;;;4.67;1.20;;;2.70;63.70;;;;;;4999868;28;20034;-82
2022/01/22 07:29:06;;;;;;;4.23;1.60;;;2.70;63.90;;;;;;4996042;28;20049;-82
2022/01/22 07:31:31;;;;;;;2.47;1.27;;;2.80;64.10;;;;;;5000154;28;20164;-82
2022/01/22 07:33:57;;;;;;;4.60;1.73;;;2.80;64.00;;;;;;4998178;28;20032;-83
2022/01/22 07:36:23;;;;;;;4.40;1.60;;;2.70;64.10;;;;;;4991703;28;20123;-82
2022/01/22 07:38:48;;;;;;;4.43;1.70;;;2.60;64.40;;;;;;4993257;28;20030;-83
2022/01/22 07:41:16;;;;;;;4.03;1.70;;;2.70;64.50;;;;;;5010194;28;20115;-82
2022/01/22 07:43:42;;;;;;;5.00;2.50;;;2.70;64.50;;;;;;4989140;28;20437;-83
2022/01/22 07:46:08;;;;;;;6.37;2.80;;;2.60;64.80;;;;;;4987759;28;20116;-82
2022/01/22 07:48:34;;;;;;;3.53;2.00;;;2.60;64.90;;;;;;5004853;28;20654;-82
2022/01/22 07:51:00;;;;;;;7.73;2.83;;;2.60;64.90;;;;;;4992779;28;20048;-82
2022/01/22 07:53:26;;;;;;;6.27;2.37;;;2.60;64.90;;;;;;5010451;28;20029;-82
2022/01/22 07:55:52;;;;;;;7.03;2.30;;;2.60;65.10;;;;;;5007718;28;20030;-83
2022/01/22 07:58:18;;;;;;;5.97;2.30;;;2.70;65.30;;;;;;4999941;28;20030;-83
2022/01/22 08:00:43;;;;;;;4.03;2.37;;;2.70;65.30;;;;;;4989638;28;20030;-83
2022/01/22 08:03:09;;;;;;;5.23;2.80;;;2.70;65.30;;;;;;5000202;28;20049;-83
2022/01/22 08:05:36;;;;;;;4.90;2.90;;;2.80;65.30;;;;;;5005655;28;20065;-83
2022/01/22 08:08:03;;;;;;;7.40;2.57;;;2.80;65.30;;;;;;4987412;28;20037;-82
2022/01/22 08:10:29;;;;;;;4.00;2.17;;;2.90;65.80;;;;;;4993174;28;20045;-82
2022/01/22 08:12:55;;;;;;;5.90;3.20;;;2.90;65.40;;;;;;5010538;28;20080;-82
2022/01/22 08:15:21;;;;;;;4.17;2.40;;;2.90;65.50;;;;;;4995751;28;20109;-83
2022/01/22 08:17:47;;;;;;;5.50;3.00;;;3.00;65.50;;;;;;4990040;28;20145;-82
2022/01/22 08:20:15;;;;;;;9.43;2.93;;;3.10;65.40;;;;;;4989446;28;20477;-83
2022/01/22 08:22:44;;;;;;;9.70;3.30;;;3.10;65.40;;;;;;4989226;28;20076;-83
2022/01/22 08:25:11;;;;;;;6.67;2.47;;;3.20;65.40;;;;;;4987447;28;20045;-83
2022/01/22 08:30:22;;;;;;;6.27;2.27;;;3.20;65.20;;;;;;4994029;28;20064;-82
2022/01/22 08:38:07;;;;;;;6.70;2.17;;;3.10;65.40;;;;;;4997369;28;20460;-82
2022/01/22 08:40:33;;;;;;;3.27;2.10;;;3.10;65.50;;;;;;4991262;28;20049;-82
2022/01/22 08:42:59;;;;;;;4.57;2.23;;;3.20;65.60;;;;;;4988996;28;20425;-82
2022/01/22 08:45:24;;;;;;;6.17;3.07;;;3.20;65.60;;;;;;4990015;28;20034;-83
2022/01/22 08:47:50;;;;;;;9.47;3.23;;;3.20;65.60;;;;;;4989723;28;20037;-83
2022/01/22 08:50:16;;;;;;;10.40;3.23;;;3.20;66.30;;;;;;4980112;28;20391;-83
2022/01/22 08:52:42;;;;;;;7.83;3.23;;;3.30;65.70;;;;;;4988579;28;20031;-83
2022/01/22 08:55:08;;;;;;;5.97;3.13;;;3.30;65.70;;;;;;4996209;28;20057;-82
2022/01/22 08:57:34;;;;;;;9.20;4.10;;;3.20;65.70;;;;;;4988497;28;20030;-83
2022/01/22 09:00:00;;;;;;;13.77;6.03;;;3.20;66.00;;;;;;4986081;28;20027;-82
2022/01/22 09:02:27;;;;;;;10.67;4.67;;;3.30;66.30;;;;;;4990363;28;20069;-83
2022/01/22 09:04:53;;;;;;;7.67;3.90;;;3.30;66.40;;;;;;4994507;28;20026;-83
2022/01/22 09:07:19;;;;;;;6.37;3.07;;;3.40;66.60;;;;;;4984331;28;20027;-83
2022/01/22 09:09:46;;;;;;;6.00;3.30;;;3.30;66.40;;;;;;4990190;28;20027;-82
2022/01/22 09:12:12;;;;;;;4.03;2.93;;;3.30;66.50;;;;;;4990373;28;20130;-83
2022/01/22 09:14:38;;;;;;;9.23;4.50;;;3.30;66.60;;;;;;4988958;28;20034;-83
2022/01/22 09:17:04;;;;;;;7.57;3.60;;;3.30;66.70;;;;;;4992773;28;20054;-82
2022/01/22 09:19:34;;;;;;;7.80;3.50;;;3.30;66.70;;;;;;5000805;28;20067;-82
2022/01/22 09:22:06;;;;;;;4.60;2.83;;;3.40;66.80;;;;;;4994156;28;20033;-83
2022/01/22 09:24:33;;;;;;;7.40;4.00;;;3.40;66.90;;;;;;4991141;28;20034;-83
2022/01/22 09:27:01;;;;;;;8.30;3.90;;;3.40;66.70;;;;;;5009620;28;20035;-83
2022/01/22 09:29:28;;;;;;;14.00;5.07;;;3.40;66.80;;;;;;4991982;28;20022;-83
2022/01/22 09:31:54;;;;;;;11.50;4.27;;;3.40;66.90;;;;;;5006854;28;20101;-82
2022/01/22 09:34:20;;;;;;;16.63;4.17;;;3.40;67.00;;;;;;5000526;28;20160;-83
2022/01/22 09:36:46;;;;;;;6.47;4.13;;;3.40;67.30;;;;;;4996842;28;20112;-83
2022/01/22 09:39:12;;;;;;;7.80;4.03;;;3.50;67.30;;;;;;5008337;28;20025;-82
2022/01/22 09:41:38;;;;;;;9.10;5.60;;;3.50;67.40;;;;;;5005055;28;20429;-83
2022/01/22 09:44:05;;;;;;;9.80;5.07;;;3.50;67.30;;;;;;4994994;28;20026;-83
2022/01/22 09:46:31;;;;;;;10.13;4.90;;;3.50;67.50;;;;;;4998327;28;20025;-83
2022/01/22 09:48:58;;;;;;;9.93;3.80;;;3.50;67.50;;;;;;4991744;28;20033;-82
2022/01/22 09:51:24;;;;;;;10.77;4.10;;;3.50;67.40;;;;;;4999200;28;20025;-82
2022/01/22 09:53:51;;;;;;;9.00;4.27;;;3.50;67.60;;;;;;5005786;28;20061;-83
2022/01/22 09:56:21;;;;;;;8.57;5.53;;;3.50;67.90;;;;;;5009461;28;20540;-83
2022/01/22 09:58:48;;;;;;;11.93;6.00;;;3.60;68.10;;;;;;4996993;28;20493;-83
2022/01/22 10:01:26;;;;;;;14.03;6.07;;;3.60;68.10;;;;;;4995831;28;20026;-83
2022/01/22 10:03:57;;;;;;;11.93;5.83;;;3.70;68.40;;;;;;4999876;28;20026;-83
2022/01/22 10:06:26;;;;;;;10.82;4.97;;;3.70;68.00;;;;;;5004168;28;20030;-83
2022/01/22 10:09:04;;;;;;;14.50;4.90;;;3.70;68.10;;;;;;4995636;28;20057;-83
2022/01/22 10:11:29;;;;;;;7.30;4.43;;;3.70;68.10;;;;;;5009899;28;20034;-83
2022/01/22 10:13:59;;;;;;;6.03;3.80;;;3.70;68.10;;;;;;4996711;28;20109;-83
2022/01/22 10:16:34;;;;;;;12.63;6.73;;;3.70;68.30;;;;;;4993002;28;20077;-83
2022/01/22 10:19:22;;;;;;;9.47;5.20;;;3.70;68.30;;;;;;5004080;28;20391;-83
2022/01/22 10:21:57;;;;;;;12.07;7.83;;;3.80;68.30;;;;;;4991064;28;20049;-83
2022/01/22 10:24:41;;;;;;;7.73;4.23;;;3.80;68.10;;;;;;5008095;28;20141;-83
2022/01/22 10:27:34;;;;;;;6.33;3.80;;;3.80;68.20;;;;;;4993523;28;20026;-83
2022/01/22 10:30:02;;;;;;;7.90;4.05;;;3.80;68.30;;;;;;4990093;28;20057;-83
2022/01/22 10:32:59;;;;;;;11.57;4.93;;;3.80;68.10;;;;;;4997832;28;20030;-83
2022/01/22 10:35:22;;;;;;;17.73;7.80;;;3.80;68.20;;;;;;5008413;28;20374;-83
2022/01/22 10:37:56;;;;;;;13.60;5.93;;;3.80;68.40;;;;;;5008275;28;20134;-83
2022/01/22 10:40:27;;;;;;;8.07;4.23;;;3.80;68.40;;;;;;5011840;28;20518;-83
2022/01/22 10:43:31;;;;;;;7.60;4.30;;;3.90;68.50;;;;;;5003228;28;20017;-83
2022/01/22 10:49:29;;;;;;;11.87;4.90;;;3.90;68.70;;;;;;5008279;28;20366;-83
2022/01/22 10:51:56;;;;;;;7.13;4.20;;;4.00;68.60;;;;;;4992107;28;20164;-83
2022/01/22 10:54:25;;;;;;;6.23;3.27;;;4.10;68.40;;;;;;4998453;28;20443;-83
2022/01/22 10:56:52;;;;;;;12.30;6.33;;;4.10;68.40;;;;;;5010709;28;20032;-83
2022/01/22 10:59:20;;;;;;;6.87;3.93;;;4.10;68.30;;;;;;5006198;28;20030;-83
2022/01/22 11:01:54;;;;;;;6.40;3.13;;;4.10;68.40;;;;;;5008320;28;20022;-83
2022/01/22 11:04:26;;;;;;;4.47;2.37;;;4.10;68.70;;;;;;4999285;28;20026;-83
2022/01/22 11:06:54;;;;;;;8.60;3.90;;;4.10;68.60;;;;;;4991798;28;20029;-83
2022/01/22 11:09:21;;;;;;;9.60;4.20;;;4.10;68.60;;;;;;4997931;28;20023;-83
2022/01/22 11:11:48;;;;;;;5.80;3.53;;;4.20;68.60;;;;;;5011902;28;20022;-83
2022/01/22 11:14:15;;;;;;;6.37;3.73;;;4.20;68.60;;;;;;4994830;28;20097;-83
2022/01/22 11:16:43;;;;;;;7.40;4.57;;;4.20;68.60;;;;;;4977424;28;20528;-83
2022/01/22 11:19:09;;;;;;;6.80;3.57;;;4.20;68.80;;;;;;4980879;28;20117;-83
2022/01/22 11:21:40;;;;;;;17.27;9.50;;;4.20;68.80;;;;;;4990534;28;20049;-83
2022/01/22 11:24:09;;;;;;;12.13;6.07;;;4.30;68.80;;;;;;4992877;28;20026;-84
2022/01/22 11:26:39;;;;;;;8.10;4.33;;;4.20;68.70;;;;;;4999745;28;20049;-84
2022/01/22 11:29:06;;;;;;;15.10;6.97;;;4.30;69.20;;;;;;5016272;28;20072;-83
2022/01/22 11:31:33;;;;;;;7.57;4.17;;;4.30;69.20;;;;;;4992391;28;20359;-84
2022/01/22 11:34:00;;;;;;;12.70;7.27;;;4.30;69.20;;;;;;4977877;28;20441;-83
2022/01/22 11:36:34;;;;;;;12.20;6.57;;;4.30;69.20;;;;;;5001873;28;20034;-83
2022/01/22 11:39:01;;;;;;;10.43;5.30;;;4.30;69.20;;;;;;4996799;28;20778;-84
2022/01/22 11:41:27;;;;;;;14.67;6.80;;;4.40;69.20;;;;;;5004884;28;20386;-83
2022/01/22 11:44:04;;;;;;;9.03;5.17;;;4.40;69.30;;;;;;4996315;28;20029;-84
2022/01/22 11:46:36;;;;;;;14.10;5.70;;;4.40;69.40;;;;;;4996167;28;20065;-84
2022/01/22 11:49:15;;;;;;;12.30;4.73;;;4.40;69.50;;;;;;4995359;28;20029;-83
2022/01/22 11:51:47;;;;;;;6.40;4.27;;;4.50;69.50;;;;;;4998635;28;20030;-83
2022/01/22 11:54:15;;;;;;;11.10;6.20;;;4.50;69.30;;;;;;4982495;28;20548;-84
2022/01/22 11:56:49;;;;;;;7.57;4.20;;;4.50;69.30;;;;;;4992441;28;20047;-83
2022/01/22 11:59:20;;;;;;;11.43;5.53;;;4.60;69.40;;;;;;4993019;28;20045;-83
2022/01/22 12:01:50;;;;;;;10.80;6.50;;;4.60;69.30;;;;;;5011332;28;20041;-83
2022/01/22 12:04:19;;;;;;;9.43;5.87;;;4.60;69.50;;;;;;4993393;28;20034;-83
2022/01/22 12:07:01;;;;;;;7.60;5.10;;;4.60;69.80;;;;;;4976741;28;20418;-83
2022/01/22 12:09:42;;;;;;;9.63;5.10;;;4.60;69.70;;;;;;4990496;28;20026;-83
2022/01/22 12:15:17;;;;;;;11.18;6.25;;;4.70;69.50;;;;;;5000039;28;20408;-83
2022/01/22 12:17:59;;;;;;;11.63;7.25;;;4.60;69.60;;;;;;4992515;28;20377;-83
2022/01/22 12:23:40;;;;;;;8.83;5.33;;;4.80;69.30;;;;;;4960164;28;20109;-83
2022/01/22 12:26:06;;;;;;;9.07;5.70;;;4.80;69.20;;;;;;4982306;28;20362;-83
2022/01/22 12:28:42;;;;;;;8.33;5.30;;;4.80;69.20;;;;;;4990692;28;20033;-83
2022/01/22 12:31:15;;;;;;;6.80;4.90;;;4.90;69.40;;;;;;4980315;28;20034;-83
2022/01/22 12:33:41;;;;;;;10.00;6.60;;;4.90;69.30;;;;;;5014934;28;20436;-83
2022/01/22 12:36:11;;;;;;;10.43;6.60;;;4.90;69.30;;;;;;5022176;28;20029;-82
2022/01/22 12:38:47;;;;;;;13.23;7.80;;;4.90;69.20;;;;;;5002221;28;20023;-83
2022/01/22 12:44:15;;;;;;;8.73;5.50;;;4.90;69.20;;;;;;5010578;28;20034;-82
2022/01/22 12:46:43;;;;;;;9.82;5.78;;;4.90;69.30;;;;;;4993025;28;20441;-83
2022/01/22 12:49:09;;;;;;;9.33;5.63;;;4.90;69.30;;;;;;4986263;28;20089;-83
2022/01/22 12:51:35;;;;;;;12.27;5.90;;;4.90;69.40;;;;;;4991723;28;20121;-83
2022/01/22 12:54:02;;;;;;;10.20;6.07;;;4.80;69.40;;;;;;4988983;28;20069;-83
2022/01/22 12:59:09;;;;;;;38.07;15.03;;;4.80;69.70;;;;;;5000084;28;20038;-83
2022/01/22 13:01:37;;;;;;;21.50;12.00;;;4.80;69.70;;;;;;4989956;28;20036;-83
2022/01/22 13:04:06;;;;;;;16.40;9.53;;;4.90;69.70;;;;;;4984384;28;20023;-83
2022/01/22 13:06:42;;;;;;;15.73;8.97;;;4.90;69.80;;;;;;4985845;28;20480;-83
2022/01/22 13:09:10;;;;;;;13.83;7.97;;;4.90;69.90;;;;;;5001111;28;20018;-83
2022/01/22 13:11:44;;;;;;;10.57;6.50;;;4.90;69.90;;;;;;4991463;28;20385;-84
2022/01/22 13:14:11;;;;;;;10.07;7.27;;;4.90;70.00;;;;;;4993645;28;20026;-84
2022/01/22 13:16:46;;;;;;;9.80;6.80;;;4.90;69.90;;;;;;5005738;28;20053;-83
2022/01/22 13:19:12;;;;;;;9.90;5.47;;;4.90;70.00;;;;;;4985112;28;20053;-84
2022/01/22 13:21:37;;;;;;;11.07;6.00;;;4.90;70.00;;;;;;4994020;28;20520;-84
2022/01/22 13:24:10;;;;;;;14.17;7.07;;;4.90;70.00;;;;;;4989902;28;20026;-83
2022/01/22 13:26:47;;;;;;;9.95;6.20;;;4.90;70.00;;;;;;5011626;28;20077;-84
2022/01/22 13:29:34;;;;;;;14.60;7.47;;;4.90;70.20;;;;;;4986837;28;20117;-84
2022/01/22 13:32:06;;;;;;;11.23;7.20;;;4.90;70.10;;;;;;4992027;28;20045;-83
2022/01/22 13:34:50;;;;;;;;;;;4.90;70.10;;;;;;4997052;28;20034;-83
2022/01/22 13:47:44;;;;;;;10.70;7.13;;;4.90;70.10;;;;;;5013053;28;20018;-83
2022/01/22 13:50:10;;;;;;;10.13;6.57;;;5.00;70.20;;;;;;4997896;28;20030;-83
2022/01/22 13:52:36;;;;;;;10.87;7.63;;;4.90;70.10;;;;;;4987255;28;20030;-83
2022/01/22 13:55:02;;;;;;;13.97;8.40;;;5.00;70.20;;;;;;4986293;28;20026;-83
2022/01/22 13:57:33;;;;;;;11.87;7.83;;;5.00;70.20;;;;;;4995030;28;20018;-83
2022/01/22 13:59:59;;;;;;;8.27;6.93;;;5.00;70.20;;;;;;4986662;28;20450;-83
2022/01/22 14:05:07;;;;;;;12.43;7.93;;;4.90;70.30;;;;;;5001072;28;20057;-84
2022/01/22 14:07:46;;;;;;;11.27;8.67;;;5.00;70.40;;;;;;4991676;28;20076;-83
2022/01/22 14:10:16;;;;;;;11.17;8.30;;;5.00;70.20;;;;;;5000976;28;20092;-83
2022/01/22 14:12:45;;;;;;;11.93;7.97;;;4.90;70.40;;;;;;4993541;28;20019;-83
2022/01/22 14:15:16;;;;;;;13.53;8.57;;;4.90;70.40;;;;;;4997720;28;20100;-84
2022/01/22 14:20:39;;;;;;;14.80;8.57;;;4.80;70.70;;;;;;4999843;28;20137;-83
2022/01/22 14:23:07;;;;;;;16.07;10.07;;;4.80;70.70;;;;;;4993093;28;20030;-83
2022/01/22 14:25:36;;;;;;;17.60;9.63;;;4.80;70.70;;;;;;4985441;28;20033;-83
2022/01/22 14:28:02;;;;;;;17.27;8.67;;;4.70;70.70;;;;;;4992598;28;20096;-83
2022/01/22 14:30:32;;;;;;;14.63;8.23;;;4.70;71.10;;;;;;4996297;28;20516;-84
2022/01/22 14:32:58;;;;;;;11.87;7.87;;;4.70;70.90;;;;;;5013442;28;20029;-83
2022/01/22 14:35:24;;;;;;;14.73;8.40;;;4.60;70.70;;;;;;5003364;28;20476;-83
2022/01/22 14:37:53;;;;;;;13.53;8.37;;;4.70;70.90;;;;;;5010534;28;20113;-83
2022/01/22 14:45:59;;;;;;;13.20;8.67;;;4.70;70.80;;;;;;5013921;28;20064;-83
2022/01/22 14:48:26;;;;;;;13.03;9.13;;;4.70;71.00;;;;;;4998766;28;20506;-84
2022/01/22 14:50:54;;;;;;;15.50;8.53;;;4.70;71.10;;;;;;4983007;28;20380;-84
2022/01/22 14:53:20;;;;;;;15.17;9.77;;;4.70;71.20;;;;;;4994906;28;20102;-83
2022/01/22 14:55:52;;;;;;;19.87;10.50;;;4.70;71.10;;;;;;4989115;28;20065;-83
2022/01/22 14:58:18;;;;;;;18.83;10.07;;;4.70;71.10;;;;;;4997012;28;20516;-84
2022/01/22 15:00:44;;;;;;;18.73;10.13;;;4.70;71.10;;;;;;4994682;28;20037;-84
2022/01/22 15:03:09;;;;;;;22.67;11.40;;;4.60;71.10;;;;;;5000240;28;20034;-84
2022/01/22 15:05:36;;;;;;;39.17;16.43;;;4.70;71.10;;;;;;5009069;28;20030;-83
2022/01/22 15:08:03;;;;;;;48.73;22.57;;;4.60;71.10;;;;;;4992148;28;20026;-84
2022/01/22 15:10:29;;;;;;;28.53;15.03;;;4.70;71.10;;;;;;4992681;28;20061;-83
2022/01/22 15:12:54;;;;;;;14.43;10.53;;;4.70;71.10;;;;;;4994918;28;20172;-83